ENY3344 KMIA-MYAM
Flight info
| Callsign | ENY3344 |
|---|---|
| Flight time | 0h 36m |
| Altitude | 25000 |
| Route | FOLZZ3 ZFP |
| Aircraft | E75L/M-SDE3GILORVW/S |
Departure
| Time | 2026-05-06 23:25 |
|---|---|
| Airport | Miami International Airport (KMIA) |
Arrival
| Time | 2026-05-07 00:01 |
|---|---|
| Airport | Leonard M. Thompson International Airport (MYAM) |
| Time | Latitude | Longitude | Altitude | Speed | Heading |
|---|---|---|---|---|---|
| 2026-05-06 22:36 | 25.79856 | -80.28652 | 12 ft | 0 kts | 178° |
| 2026-05-06 23:14 | 25.79868 | -80.28653 | 12 ft | 2 kts | 177° |
| 2026-05-06 23:14 | 25.79884 | -80.28654 | 12 ft | 2 kts | 178° |
| 2026-05-06 23:14 | 25.79898 | -80.28652 | 12 ft | 2 kts | 195° |
| 2026-05-06 23:14 | 25.79913 | -80.28646 | 12 ft | 2 kts | 210° |
| 2026-05-06 23:15 | 25.79925 | -80.28636 | 12 ft | 2 kts | 225° |
| 2026-05-06 23:15 | 25.79934 | -80.28623 | 12 ft | 2 kts | 240° |
| 2026-05-06 23:15 | 25.79940 | -80.28608 | 12 ft | 2 kts | 255° |
| 2026-05-06 23:15 | 25.79942 | -80.28597 | 12 ft | 0 kts | 265° |
| 2026-05-06 23:16 | 25.79942 | -80.28590 | 12 ft | 0 kts | 268° |
| 2026-05-06 23:20 | 25.79942 | -80.28595 | 12 ft | 1 kts | 268° |
| 2026-05-06 23:20 | 25.79942 | -80.28610 | 12 ft | 2 kts | 268° |
| 2026-05-06 23:20 | 25.79940 | -80.28638 | 12 ft | 4 kts | 268° |
| 2026-05-06 23:20 | 25.79939 | -80.28675 | 12 ft | 5 kts | 267° |
| 2026-05-06 23:21 | 25.79937 | -80.28730 | 12 ft | 8 kts | 269° |
| 2026-05-06 23:21 | 25.79948 | -80.28805 | 12 ft | 11 kts | 309° |
| 2026-05-06 23:21 | 25.80010 | -80.28861 | 12 ft | 13 kts | 274° |
| 2026-05-06 23:21 | 25.80008 | -80.28974 | 11 ft | 16 kts | 268° |
| 2026-05-06 23:22 | 25.80003 | -80.29110 | 12 ft | 18 kts | 268° |
| 2026-05-06 23:22 | 25.79997 | -80.29253 | 11 ft | 17 kts | 268° |
| 2026-05-06 23:22 | 25.79991 | -80.29391 | 12 ft | 17 kts | 265° |
| 2026-05-06 23:22 | 25.79986 | -80.29525 | 12 ft | 18 kts | 268° |
| 2026-05-06 23:23 | 25.79981 | -80.29668 | 12 ft | 18 kts | 268° |
| 2026-05-06 23:23 | 25.79975 | -80.29810 | 12 ft | 18 kts | 267° |
| 2026-05-06 23:23 | 25.79977 | -80.29958 | 12 ft | 19 kts | 284° |
| 2026-05-06 23:23 | 25.80018 | -80.30105 | 12 ft | 16 kts | 296° |
| 2026-05-06 23:24 | 25.80071 | -80.30099 | 12 ft | 8 kts | 88° |
| 2026-05-06 23:24 | 25.80072 | -80.30077 | 12 ft | 0 kts | 87° |
| 2026-05-06 23:24 | 25.80079 | -80.29919 | 12 ft | 51 kts | 88° |
| 2026-05-06 23:24 | 25.80105 | -80.29296 | 12 ft | 110 kts | 88° |
| 2026-05-06 23:25 | 25.80150 | -80.28267 | 114 ft | 143 kts | 86° |
| 2026-05-06 23:25 | 25.80195 | -80.27256 | 765 ft | 131 kts | 87° |
| 2026-05-06 23:25 | 25.80108 | -80.26155 | 966 ft | 158 kts | 108° |
| 2026-05-06 23:25 | 25.79609 | -80.25081 | 1553 ft | 158 kts | 124° |
| 2026-05-06 23:26 | 25.79033 | -80.24052 | 2088 ft | 161 kts | 117° |
| 2026-05-06 23:26 | 25.78522 | -80.22916 | 2571 ft | 168 kts | 113° |
| 2026-05-06 23:26 | 25.78063 | -80.21715 | 3045 ft | 174 kts | 110° |
| 2026-05-06 23:26 | 25.77630 | -80.20432 | 3528 ft | 181 kts | 108° |
| 2026-05-06 23:27 | 25.77212 | -80.19089 | 4012 ft | 187 kts | 107° |
| 2026-05-06 23:27 | 25.76710 | -80.17734 | 4383 ft | 202 kts | 117° |
| 2026-05-06 23:27 | 25.75987 | -80.16319 | 4711 ft | 220 kts | 117° |
| 2026-05-06 23:27 | 25.75210 | -80.14777 | 5116 ft | 235 kts | 117° |
| 2026-05-06 23:28 | 25.74392 | -80.13140 | 5520 ft | 249 kts | 116° |
| 2026-05-06 23:28 | 25.73992 | -80.11256 | 5926 ft | 257 kts | 81° |
| 2026-05-06 23:28 | 25.74687 | -80.09435 | 6372 ft | 263 kts | 49° |
| 2026-05-06 23:28 | 25.75920 | -80.07900 | 6796 ft | 274 kts | 47° |
| 2026-05-06 23:29 | 25.77213 | -80.06288 | 7187 ft | 285 kts | 47° |
| 2026-05-06 23:29 | 25.78531 | -80.04630 | 7566 ft | 294 kts | 48° |
| 2026-05-06 23:29 | 25.79918 | -80.02877 | 7959 ft | 309 kts | 48° |
| 2026-05-06 23:29 | 25.81367 | -80.01041 | 8347 ft | 323 kts | 48° |
| 2026-05-06 23:30 | 25.82867 | -79.99136 | 8750 ft | 334 kts | 48° |
| 2026-05-06 23:30 | 25.84417 | -79.97167 | 9123 ft | 336 kts | 48° |
| 2026-05-06 23:30 | 25.85963 | -79.95203 | 9580 ft | 336 kts | 48° |
| 2026-05-06 23:30 | 25.87500 | -79.93248 | 10216 ft | 338 kts | 48° |
| 2026-05-06 23:31 | 25.89056 | -79.91269 | 10833 ft | 339 kts | 48° |
| 2026-05-06 23:31 | 25.90591 | -79.89316 | 11411 ft | 340 kts | 48° |
| 2026-05-06 23:31 | 25.92156 | -79.87323 | 11983 ft | 342 kts | 47° |
| 2026-05-06 23:31 | 25.93726 | -79.85324 | 12615 ft | 343 kts | 47° |
| 2026-05-06 23:32 | 25.95276 | -79.83349 | 13227 ft | 344 kts | 47° |
| 2026-05-06 23:32 | 25.96849 | -79.81345 | 13814 ft | 345 kts | 47° |
| 2026-05-06 23:32 | 25.98422 | -79.79338 | 14397 ft | 345 kts | 47° |
| 2026-05-06 23:32 | 25.99996 | -79.77330 | 14977 ft | 346 kts | 47° |
| 2026-05-06 23:33 | 26.01592 | -79.75293 | 15565 ft | 346 kts | 46° |
| 2026-05-06 23:33 | 26.03155 | -79.73296 | 16135 ft | 346 kts | 46° |
| 2026-05-06 23:33 | 26.04736 | -79.71277 | 16708 ft | 345 kts | 46° |
| 2026-05-06 23:33 | 26.06295 | -79.69285 | 17278 ft | 345 kts | 46° |
| 2026-05-06 23:34 | 26.07871 | -79.67269 | 17864 ft | 344 kts | 45° |
| 2026-05-06 23:34 | 26.09436 | -79.65268 | 18451 ft | 343 kts | 45° |
| 2026-05-06 23:34 | 26.10944 | -79.63221 | 19051 ft | 344 kts | 50° |
| 2026-05-06 23:34 | 26.12332 | -79.61046 | 19666 ft | 342 kts | 50° |
| 2026-05-06 23:35 | 26.13700 | -79.58895 | 20268 ft | 340 kts | 50° |
| 2026-05-06 23:35 | 26.15044 | -79.56780 | 20863 ft | 338 kts | 49° |
| 2026-05-06 23:35 | 26.16398 | -79.54647 | 21468 ft | 336 kts | 49° |
| 2026-05-06 23:35 | 26.17724 | -79.52558 | 22070 ft | 333 kts | 48° |
| 2026-05-06 23:36 | 26.19056 | -79.50459 | 22683 ft | 329 kts | 48° |
| 2026-05-06 23:36 | 26.20369 | -79.48389 | 23297 ft | 325 kts | 48° |
| 2026-05-06 23:36 | 26.21650 | -79.46368 | 23911 ft | 321 kts | 48° |
| 2026-05-06 23:36 | 26.22916 | -79.44370 | 24529 ft | 316 kts | 47° |
| 2026-05-06 23:37 | 26.24193 | -79.42357 | 24944 ft | 319 kts | 47° |
| 2026-05-06 23:37 | 26.25497 | -79.40301 | 24990 ft | 333 kts | 48° |
| 2026-05-06 23:37 | 26.26859 | -79.38150 | 25008 ft | 348 kts | 48° |
| 2026-05-06 23:37 | 26.28274 | -79.35915 | 25010 ft | 363 kts | 49° |
| 2026-05-06 23:38 | 26.29534 | -79.33350 | 25016 ft | 384 kts | 60° |
| 2026-05-06 23:38 | 26.30641 | -79.30595 | 25000 ft | 398 kts | 60° |
| 2026-05-06 23:38 | 26.31790 | -79.27735 | 24998 ft | 410 kts | 60° |
| 2026-05-06 23:38 | 26.32975 | -79.24783 | 24998 ft | 422 kts | 61° |
| 2026-05-06 23:39 | 26.34187 | -79.21762 | 24995 ft | 433 kts | 61° |
| 2026-05-06 23:39 | 26.35415 | -79.18697 | 24993 ft | 443 kts | 61° |
| 2026-05-06 23:39 | 26.36684 | -79.15531 | 24991 ft | 451 kts | 61° |
| 2026-05-06 23:39 | 26.37974 | -79.12307 | 24987 ft | 454 kts | 61° |
| 2026-05-06 23:40 | 26.39249 | -79.09119 | 24984 ft | 453 kts | 61° |
| 2026-05-06 23:40 | 26.40538 | -79.05894 | 24983 ft | 452 kts | 61° |
| 2026-05-06 23:40 | 26.41812 | -79.02705 | 24983 ft | 450 kts | 61° |
| 2026-05-06 23:40 | 26.43088 | -78.99506 | 24985 ft | 450 kts | 61° |
| 2026-05-06 23:41 | 26.44354 | -78.96336 | 24989 ft | 451 kts | 61° |
| 2026-05-06 23:41 | 26.45624 | -78.93149 | 24988 ft | 451 kts | 61° |
| 2026-05-06 23:41 | 26.46893 | -78.89960 | 24989 ft | 450 kts | 61° |
| 2026-05-06 23:41 | 26.48168 | -78.86756 | 24991 ft | 451 kts | 61° |
| 2026-05-06 23:42 | 26.49444 | -78.83546 | 24989 ft | 449 kts | 61° |
| 2026-05-06 23:42 | 26.50704 | -78.80377 | 24987 ft | 450 kts | 61° |
| 2026-05-06 23:42 | 26.51670 | -78.77035 | 24981 ft | 460 kts | 78° |
| 2026-05-06 23:42 | 26.51809 | -78.73425 | 25010 ft | 467 kts | 85° |
| 2026-05-06 23:43 | 26.51800 | -78.69853 | 24993 ft | 466 kts | 86° |
| 2026-05-06 23:43 | 26.51785 | -78.66236 | 24991 ft | 466 kts | 86° |
| 2026-05-06 23:43 | 26.51766 | -78.62622 | 24991 ft | 465 kts | 86° |
| 2026-05-06 23:43 | 26.51747 | -78.59019 | 24990 ft | 466 kts | 86° |
| 2026-05-06 23:44 | 26.51726 | -78.55402 | 24991 ft | 465 kts | 86° |
| 2026-05-06 23:44 | 26.51705 | -78.51793 | 24989 ft | 466 kts | 86° |
| 2026-05-06 23:44 | 26.51683 | -78.48203 | 24421 ft | 466 kts | 86° |
| 2026-05-06 23:44 | 26.51659 | -78.44593 | 23741 ft | 459 kts | 86° |
| 2026-05-06 23:45 | 26.51635 | -78.41077 | 23075 ft | 451 kts | 86° |
| 2026-05-06 23:45 | 26.51611 | -78.37632 | 22412 ft | 444 kts | 86° |
| 2026-05-06 23:45 | 26.51587 | -78.34192 | 21764 ft | 438 kts | 86° |
| 2026-05-06 23:45 | 26.51562 | -78.30817 | 21116 ft | 432 kts | 86° |
| 2026-05-06 23:46 | 26.51536 | -78.27525 | 20474 ft | 427 kts | 86° |
| 2026-05-06 23:46 | 26.51511 | -78.24241 | 19829 ft | 422 kts | 86° |
| 2026-05-06 23:46 | 26.51484 | -78.20954 | 19176 ft | 418 kts | 86° |
| 2026-05-06 23:46 | 26.51457 | -78.17741 | 18533 ft | 412 kts | 86° |
| 2026-05-06 23:47 | 26.51430 | -78.14580 | 17896 ft | 407 kts | 86° |
| 2026-05-06 23:47 | 26.51403 | -78.11460 | 17259 ft | 402 kts | 86° |
| 2026-05-06 23:47 | 26.51375 | -78.08363 | 16626 ft | 396 kts | 86° |
| 2026-05-06 23:47 | 26.51347 | -78.05333 | 15987 ft | 386 kts | 86° |
| 2026-05-06 23:48 | 26.51319 | -78.02373 | 15344 ft | 376 kts | 86° |
| 2026-05-06 23:48 | 26.51291 | -77.99518 | 14710 ft | 367 kts | 86° |
| 2026-05-06 23:48 | 26.51264 | -77.96711 | 14069 ft | 359 kts | 86° |
| 2026-05-06 23:48 | 26.51236 | -77.93954 | 13426 ft | 351 kts | 86° |
| 2026-05-06 23:49 | 26.51209 | -77.91246 | 12773 ft | 344 kts | 86° |
| 2026-05-06 23:49 | 26.51182 | -77.88596 | 12120 ft | 338 kts | 86° |
| 2026-05-06 23:49 | 26.51155 | -77.86008 | 11468 ft | 333 kts | 87° |
| 2026-05-06 23:49 | 26.51127 | -77.83444 | 10818 ft | 328 kts | 87° |
| 2026-05-06 23:50 | 26.51099 | -77.80914 | 10166 ft | 324 kts | 88° |
| 2026-05-06 23:50 | 26.51044 | -77.75944 | 8869 ft | 318 kts | 88° |
| 2026-05-06 23:50 | 26.51017 | -77.73509 | 8223 ft | 315 kts | 89° |
| 2026-05-06 23:51 | 26.50988 | -77.71048 | 7566 ft | 313 kts | 89° |
| 2026-05-06 23:51 | 26.50960 | -77.68644 | 6919 ft | 311 kts | 89° |
| 2026-05-06 23:51 | 26.50931 | -77.66222 | 6261 ft | 309 kts | 89° |
| 2026-05-06 23:51 | 26.50902 | -77.63837 | 5613 ft | 308 kts | 89° |
| 2026-05-06 23:52 | 26.50873 | -77.61481 | 4966 ft | 306 kts | 89° |
| 2026-05-06 23:52 | 26.50843 | -77.59101 | 4308 ft | 303 kts | 90° |
| 2026-05-06 23:52 | 26.50813 | -77.56763 | 3655 ft | 301 kts | 90° |
| 2026-05-06 23:52 | 26.50784 | -77.54449 | 3005 ft | 299 kts | 90° |
| 2026-05-06 23:53 | 26.50754 | -77.52147 | 2406 ft | 294 kts | 90° |
| 2026-05-06 23:53 | 26.50725 | -77.49930 | 2286 ft | 272 kts | 90° |
| 2026-05-06 23:53 | 26.50698 | -77.47916 | 2261 ft | 251 kts | 90° |
| 2026-05-06 23:53 | 26.50673 | -77.46035 | 2256 ft | 231 kts | 90° |
| 2026-05-06 23:54 | 26.50650 | -77.44325 | 2256 ft | 214 kts | 90° |
| 2026-05-06 23:54 | 26.50627 | -77.42673 | 2271 ft | 212 kts | 89° |
| 2026-05-06 23:54 | 26.50605 | -77.41009 | 2282 ft | 215 kts | 90° |
| 2026-05-06 23:54 | 26.50582 | -77.39350 | 2284 ft | 217 kts | 90° |
| 2026-05-06 23:55 | 26.50559 | -77.37665 | 2284 ft | 217 kts | 90° |
| 2026-05-06 23:55 | 26.50535 | -77.35985 | 2279 ft | 215 kts | 89° |
| 2026-05-06 23:55 | 26.50511 | -77.34315 | 2279 ft | 216 kts | 90° |
| 2026-05-06 23:55 | 26.50487 | -77.32653 | 2278 ft | 215 kts | 90° |
| 2026-05-06 23:56 | 26.50464 | -77.31004 | 2311 ft | 206 kts | 90° |
| 2026-05-06 23:56 | 26.50463 | -77.29462 | 2307 ft | 186 kts | 88° |
| 2026-05-06 23:56 | 26.50501 | -77.28036 | 1941 ft | 190 kts | 88° |
| 2026-05-06 23:56 | 26.50541 | -77.26548 | 1621 ft | 187 kts | 88° |
| 2026-05-06 23:57 | 26.50578 | -77.25151 | 1561 ft | 172 kts | 88° |
| 2026-05-06 23:57 | 26.50612 | -77.23853 | 1561 ft | 165 kts | 88° |
| 2026-05-06 23:57 | 26.50647 | -77.22543 | 1582 ft | 168 kts | 88° |
| 2026-05-06 23:57 | 26.50682 | -77.21227 | 1586 ft | 169 kts | 88° |
| 2026-05-06 23:58 | 26.50715 | -77.19948 | 1692 ft | 156 kts | 87° |
| 2026-05-06 23:58 | 26.50745 | -77.18819 | 1559 ft | 134 kts | 87° |
| 2026-05-06 23:58 | 26.50769 | -77.17820 | 1479 ft | 126 kts | 88° |
| 2026-05-06 23:58 | 26.50786 | -77.16843 | 1398 ft | 125 kts | 88° |
| 2026-05-06 23:59 | 26.50823 | -77.15883 | 1377 ft | 126 kts | 88° |
| 2026-05-06 23:59 | 26.50824 | -77.14889 | 1372 ft | 127 kts | 88° |
| 2026-05-06 23:59 | 26.50864 | -77.13888 | 1135 ft | 128 kts | 87° |
| 2026-05-06 23:59 | 26.50888 | -77.12910 | 808 ft | 123 kts | 88° |
| 2026-05-07 00:00 | 26.50915 | -77.11984 | 536 ft | 119 kts | 87° |
| 2026-05-07 00:00 | 26.50944 | -77.11044 | 329 ft | 122 kts | 88° |
| 2026-05-07 00:00 | 26.50972 | -77.10105 | 140 ft | 119 kts | 88° |
| 2026-05-07 00:00 | 26.50996 | -77.09213 | 13 ft | 110 kts | 88° |
| 2026-05-07 00:01 | 26.51016 | -77.08472 | 15 ft | 71 kts | 88° |
| 2026-05-07 00:01 | 26.51044 | -77.08149 | 17 ft | 24 kts | 71° |
| 2026-05-07 00:01 | 26.51106 | -77.08013 | 17 ft | 11 kts | 57° |
| 2026-05-07 00:01 | 26.51150 | -77.07932 | 17 ft | 12 kts | 60° |
| 2026-05-07 00:02 | 26.51199 | -77.07846 | 17 ft | 13 kts | 59° |
| 2026-05-07 00:02 | 26.51246 | -77.07793 | 17 ft | 7 kts | 14° |
| 2026-05-07 00:02 | 26.51280 | -77.07783 | 17 ft | 1 kts | 14° |
| 2026-05-07 00:02 | 26.51283 | -77.07783 | 17 ft | 0 kts | 14° |